sensor_id;sensor_type;location;lat;lon;timestamp;temperature;humidity
24448;DHT22;13348;50.984;5.822;2023-12-29T00:00:11;10.70;99.90
24448;DHT22;13348;50.984;5.822;2023-12-29T00:02:39;10.60;99.90
24448;DHT22;13348;50.984;5.822;2023-12-29T00:05:06;10.70;99.90
24448;DHT22;13348;50.984;5.822;2023-12-29T00:07:33;10.60;99.90
24448;DHT22;13348;50.984;5.822;2023-12-29T00:10:00;10.60;99.90
24448;DHT22;13348;50.984;5.822;2023-12-29T00:12:28;10.70;99.90
24448;DHT22;13348;50.984;5.822;2023-12-29T00:14:55;10.60;99.90
24448;DHT22;13348;50.984;5.822;2023-12-29T00:17:22;10.60;99.90
24448;DHT22;13348;50.984;5.822;2023-12-29T00:19:49;10.60;99.90
24448;DHT22;13348;50.984;5.822;2023-12-29T00:22:16;10.60;99.90
24448;DHT22;13348;50.984;5.822;2023-12-29T00:24:43;10.50;99.90
24448;DHT22;13348;50.984;5.822;2023-12-29T00:27:10;10.50;99.90
24448;DHT22;13348;50.984;5.822;2023-12-29T00:29:38;10.50;99.90
24448;DHT22;13348;50.984;5.822;2023-12-29T00:32:05;10.50;99.90
24448;DHT22;13348;50.984;5.822;2023-12-29T00:34:32;10.50;99.90
24448;DHT22;13348;50.984;5.822;2023-12-29T00:36:59;10.60;99.90
24448;DHT22;13348;50.984;5.822;2023-12-29T00:39:26;10.50;99.90
24448;DHT22;13348;50.984;5.822;2023-12-29T00:41:56;10.50;99.90
24448;DHT22;13348;50.984;5.822;2023-12-29T00:44:23;10.50;99.90
24448;DHT22;13348;50.984;5.822;2023-12-29T00:46:51;10.40;99.90
24448;DHT22;13348;50.984;5.822;2023-12-29T00:49:18;10.50;99.90
24448;DHT22;13348;50.984;5.822;2023-12-29T00:51:46;10.50;99.90
24448;DHT22;13348;50.984;5.822;2023-12-29T00:54:13;10.50;99.90
24448;DHT22;13348;50.984;5.822;2023-12-29T00:56:40;10.50;99.90
24448;DHT22;13348;50.984;5.822;2023-12-29T00:59:07;10.50;99.90
24448;DHT22;13348;50.984;5.822;2023-12-29T01:01:34;10.50;99.90
24448;DHT22;13348;50.984;5.822;2023-12-29T01:04:03;10.50;99.90
24448;DHT22;13348;50.984;5.822;2023-12-29T01:06:30;10.50;99.90
24448;DHT22;13348;50.984;5.822;2023-12-29T01:08:57;10.50;99.90
24448;DHT22;13348;50.984;5.822;2023-12-29T01:11:24;10.40;99.90
24448;DHT22;13348;50.984;5.822;2023-12-29T01:13:51;10.50;99.90
24448;DHT22;13348;50.984;5.822;2023-12-29T01:16:17;10.50;99.90
24448;DHT22;13348;50.984;5.822;2023-12-29T01:18:45;10.50;99.90
24448;DHT22;13348;50.984;5.822;2023-12-29T01:21:14;10.40;99.90
24448;DHT22;13348;50.984;5.822;2023-12-29T01:23:40;10.40;99.90
24448;DHT22;13348;50.984;5.822;2023-12-29T01:26:07;10.40;99.90
24448;DHT22;13348;50.984;5.822;2023-12-29T01:28:34;10.40;99.90
24448;DHT22;13348;50.984;5.822;2023-12-29T01:31:01;10.30;99.90
24448;DHT22;13348;50.984;5.822;2023-12-29T01:33:28;10.40;99.90
24448;DHT22;13348;50.984;5.822;2023-12-29T01:35:55;10.40;99.90
24448;DHT22;13348;50.984;5.822;2023-12-29T01:38:23;10.40;99.90
24448;DHT22;13348;50.984;5.822;2023-12-29T01:40:50;10.40;99.90
24448;DHT22;13348;50.984;5.822;2023-12-29T01:43:17;10.20;99.90
24448;DHT22;13348;50.984;5.822;2023-12-29T01:45:44;10.00;99.90
24448;DHT22;13348;50.984;5.822;2023-12-29T01:48:11;10.00;99.90
24448;DHT22;13348;50.984;5.822;2023-12-29T01:50:37;10.00;99.90
24448;DHT22;13348;50.984;5.822;2023-12-29T01:53:06;9.80;99.90
24448;DHT22;13348;50.984;5.822;2023-12-29T01:55:35;9.60;99.90
24448;DHT22;13348;50.984;5.822;2023-12-29T01:58:01;9.60;99.90
24448;DHT22;13348;50.984;5.822;2023-12-29T02:00:29;9.70;99.90
24448;DHT22;13348;50.984;5.822;2023-12-29T02:02:57;9.50;99.90
24448;DHT22;13348;50.984;5.822;2023-12-29T02:05:24;9.40;99.90
24448;DHT22;13348;50.984;5.822;2023-12-29T02:07:53;9.40;99.90
24448;DHT22;13348;50.984;5.822;2023-12-29T02:10:20;9.30;99.90
24448;DHT22;13348;50.984;5.822;2023-12-29T02:12:50;9.50;99.90
24448;DHT22;13348;50.984;5.822;2023-12-29T02:15:19;9.50;99.90
24448;DHT22;13348;50.984;5.822;2023-12-29T02:17:47;9.60;99.90
24448;DHT22;13348;50.984;5.822;2023-12-29T02:20:15;9.60;99.90
24448;DHT22;13348;50.984;5.822;2023-12-29T02:22:42;9.70;99.90
24448;DHT22;13348;50.984;5.822;2023-12-29T02:25:11;9.70;99.90
24448;DHT22;13348;50.984;5.822;2023-12-29T02:27:41;9.60;99.90
24448;DHT22;13348;50.984;5.822;2023-12-29T02:30:11;9.60;99.90
24448;DHT22;13348;50.984;5.822;2023-12-29T02:32:43;9.70;99.90
24448;DHT22;13348;50.984;5.822;2023-12-29T02:35:12;9.80;99.90
24448;DHT22;13348;50.984;5.822;2023-12-29T02:37:40;9.90;99.90
24448;DHT22;13348;50.984;5.822;2023-12-29T02:40:07;10.00;99.90
24448;DHT22;13348;50.984;5.822;2023-12-29T02:42:36;10.00;99.90
24448;DHT22;13348;50.984;5.822;2023-12-29T02:45:03;10.10;99.90
24448;DHT22;13348;50.984;5.822;2023-12-29T02:47:30;10.20;99.90
24448;DHT22;13348;50.984;5.822;2023-12-29T02:49:57;10.20;99.90
24448;DHT22;13348;50.984;5.822;2023-12-29T02:52:24;10.20;99.90
24448;DHT22;13348;50.984;5.822;2023-12-29T02:54:51;10.20;99.90
24448;DHT22;13348;50.984;5.822;2023-12-29T02:57:18;10.20;99.90
24448;DHT22;13348;50.984;5.822;2023-12-29T02:59:46;10.30;99.90
24448;DHT22;13348;50.984;5.822;2023-12-29T03:02:13;10.30;99.90
24448;DHT22;13348;50.984;5.822;2023-12-29T03:04:40;10.30;99.90
24448;DHT22;13348;50.984;5.822;2023-12-29T03:07:07;10.30;99.90
24448;DHT22;13348;50.984;5.822;2023-12-29T03:09:34;10.30;99.90
24448;DHT22;13348;50.984;5.822;2023-12-29T03:12:00;10.30;99.90
24448;DHT22;13348;50.984;5.822;2023-12-29T03:14:27;10.30;99.90
24448;DHT22;13348;50.984;5.822;2023-12-29T03:16:56;10.30;99.90
24448;DHT22;13348;50.984;5.822;2023-12-29T03:19:24;10.30;99.90
24448;DHT22;13348;50.984;5.822;2023-12-29T03:21:51;10.40;99.90
24448;DHT22;13348;50.984;5.822;2023-12-29T03:24:19;10.40;99.90
24448;DHT22;13348;50.984;5.822;2023-12-29T03:26:46;10.30;99.90
24448;DHT22;13348;50.984;5.822;2023-12-29T03:29:13;10.40;99.90
24448;DHT22;13348;50.984;5.822;2023-12-29T03:31:40;10.30;99.90
24448;DHT22;13348;50.984;5.822;2023-12-29T03:34:08;10.40;99.90
24448;DHT22;13348;50.984;5.822;2023-12-29T03:36:35;10.40;99.90
24448;DHT22;13348;50.984;5.822;2023-12-29T03:39:02;10.40;99.90
24448;DHT22;13348;50.984;5.822;2023-12-29T03:41:30;10.40;99.90
24448;DHT22;13348;50.984;5.822;2023-12-29T03:43:57;10.40;99.90
24448;DHT22;13348;50.984;5.822;2023-12-29T03:46:25;10.50;99.90
24448;DHT22;13348;50.984;5.822;2023-12-29T03:48:52;10.40;99.90
24448;DHT22;13348;50.984;5.822;2023-12-29T03:51:20;10.40;99.90
24448;DHT22;13348;50.984;5.822;2023-12-29T03:53:47;10.30;99.90
24448;DHT22;13348;50.984;5.822;2023-12-29T03:56:15;10.20;99.90
24448;DHT22;13348;50.984;5.822;2023-12-29T03:58:43;10.30;99.90
24448;DHT22;13348;50.984;5.822;2023-12-29T04:01:10;10.30;99.90
24448;DHT22;13348;50.984;5.822;2023-12-29T04:03:37;10.40;99.90
24448;DHT22;13348;50.984;5.822;2023-12-29T04:06:04;10.40;99.90
24448;DHT22;13348;50.984;5.822;2023-12-29T04:08:33;10.40;99.90
24448;DHT22;13348;50.984;5.822;2023-12-29T04:11:00;10.40;99.90
24448;DHT22;13348;50.984;5.822;2023-12-29T04:13:27;10.40;99.90
24448;DHT22;13348;50.984;5.822;2023-12-29T04:15:54;10.50;99.90
24448;DHT22;13348;50.984;5.822;2023-12-29T04:18:21;10.40;99.90
24448;DHT22;13348;50.984;5.822;2023-12-29T04:20:48;10.50;99.90
24448;DHT22;13348;50.984;5.822;2023-12-29T04:23:15;10.40;99.90
24448;DHT22;13348;50.984;5.822;2023-12-29T04:25:44;10.40;99.90
24448;DHT22;13348;50.984;5.822;2023-12-29T04:28:11;10.40;99.90
24448;DHT22;13348;50.984;5.822;2023-12-29T04:30:38;10.30;99.90
24448;DHT22;13348;50.984;5.822;2023-12-29T04:33:05;10.40;99.90
24448;DHT22;13348;50.984;5.822;2023-12-29T04:35:32;10.20;99.90
24448;DHT22;13348;50.984;5.822;2023-12-29T04:37:59;10.20;99.90
24448;DHT22;13348;50.984;5.822;2023-12-29T04:40:25;10.30;99.90
24448;DHT22;13348;50.984;5.822;2023-12-29T04:42:54;10.30;99.90
24448;DHT22;13348;50.984;5.822;2023-12-29T04:45:21;10.30;99.90
24448;DHT22;13348;50.984;5.822;2023-12-29T04:47:48;10.30;99.90
24448;DHT22;13348;50.984;5.822;2023-12-29T04:50:15;10.20;99.90
24448;DHT22;13348;50.984;5.822;2023-12-29T04:52:41;10.20;99.90
24448;DHT22;13348;50.984;5.822;2023-12-29T04:55:08;10.30;99.90
24448;DHT22;13348;50.984;5.822;2023-12-29T04:57:35;10.30;99.90
24448;DHT22;13348;50.984;5.822;2023-12-29T05:00:04;10.30;99.90
24448;DHT22;13348;50.984;5.822;2023-12-29T05:02:31;10.30;99.90
24448;DHT22;13348;50.984;5.822;2023-12-29T05:04:58;10.20;99.90
24448;DHT22;13348;50.984;5.822;2023-12-29T05:07:26;10.20;99.90
24448;DHT22;13348;50.984;5.822;2023-12-29T05:09:53;10.30;99.90
24448;DHT22;13348;50.984;5.822;2023-12-29T05:12:20;10.30;99.90
24448;DHT22;13348;50.984;5.822;2023-12-29T05:14:47;10.30;99.90
24448;DHT22;13348;50.984;5.822;2023-12-29T05:17:15;10.30;99.90
24448;DHT22;13348;50.984;5.822;2023-12-29T05:19:42;10.30;99.90
24448;DHT22;13348;50.984;5.822;2023-12-29T05:22:09;10.30;99.90
24448;DHT22;13348;50.984;5.822;2023-12-29T05:24:37;10.30;99.90
24448;DHT22;13348;50.984;5.822;2023-12-29T05:27:04;10.30;99.90
24448;DHT22;13348;50.984;5.822;2023-12-29T05:29:30;10.30;99.90
24448;DHT22;13348;50.984;5.822;2023-12-29T05:31:57;10.30;99.90
24448;DHT22;13348;50.984;5.822;2023-12-29T05:34:26;10.40;99.90
24448;DHT22;13348;50.984;5.822;2023-12-29T05:36:52;10.30;99.90
24448;DHT22;13348;50.984;5.822;2023-12-29T05:39:19;10.20;99.90
24448;DHT22;13348;50.984;5.822;2023-12-29T05:41:46;10.20;99.90
24448;DHT22;13348;50.984;5.822;2023-12-29T05:44:13;10.20;99.90
24448;DHT22;13348;50.984;5.822;2023-12-29T05:46:41;10.20;99.90
24448;DHT22;13348;50.984;5.822;2023-12-29T05:49:12;10.30;99.90
24448;DHT22;13348;50.984;5.822;2023-12-29T05:51:40;10.30;99.90
24448;DHT22;13348;50.984;5.822;2023-12-29T05:54:07;10.40;99.90
24448;DHT22;13348;50.984;5.822;2023-12-29T05:56:34;10.40;99.90
24448;DHT22;13348;50.984;5.822;2023-12-29T05:59:01;10.40;99.90
24448;DHT22;13348;50.984;5.822;2023-12-29T06:01:28;10.40;99.90
24448;DHT22;13348;50.984;5.822;2023-12-29T06:03:55;10.50;99.90
24448;DHT22;13348;50.984;5.822;2023-12-29T06:06:22;10.50;99.90
24448;DHT22;13348;50.984;5.822;2023-12-29T06:08:51;10.40;99.90
24448;DHT22;13348;50.984;5.822;2023-12-29T06:11:17;10.30;99.90
24448;DHT22;13348;50.984;5.822;2023-12-29T06:13:45;10.50;99.90
24448;DHT22;13348;50.984;5.822;2023-12-29T06:16:16;10.40;99.90
24448;DHT22;13348;50.984;5.822;2023-12-29T06:18:43;10.50;99.90
24448;DHT22;13348;50.984;5.822;2023-12-29T06:21:10;10.50;99.90
24448;DHT22;13348;50.984;5.822;2023-12-29T06:23:37;10.40;99.90
24448;DHT22;13348;50.984;5.822;2023-12-29T06:26:06;10.50;99.90
24448;DHT22;13348;50.984;5.822;2023-12-29T06:28:40;10.50;99.90
24448;DHT22;13348;50.984;5.822;2023-12-29T06:31:07;10.50;99.90
24448;DHT22;13348;50.984;5.822;2023-12-29T06:33:34;10.50;99.90
24448;DHT22;13348;50.984;5.822;2023-12-29T06:36:01;10.50;99.90
24448;DHT22;13348;50.984;5.822;2023-12-29T06:38:28;10.50;99.90
24448;DHT22;13348;50.984;5.822;2023-12-29T06:40:55;10.50;99.90
24448;DHT22;13348;50.984;5.822;2023-12-29T06:43:24;10.50;99.90
24448;DHT22;13348;50.984;5.822;2023-12-29T06:45:51;10.50;99.90
24448;DHT22;13348;50.984;5.822;2023-12-29T06:48:18;10.60;99.90
24448;DHT22;13348;50.984;5.822;2023-12-29T06:50:45;10.60;99.90
24448;DHT22;13348;50.984;5.822;2023-12-29T06:53:12;10.50;99.90
24448;DHT22;13348;50.984;5.822;2023-12-29T06:55:39;10.50;99.90
24448;DHT22;13348;50.984;5.822;2023-12-29T06:58:06;10.50;99.90
24448;DHT22;13348;50.984;5.822;2023-12-29T07:00:35;10.40;99.90
24448;DHT22;13348;50.984;5.822;2023-12-29T07:03:02;10.30;99.90
24448;DHT22;13348;50.984;5.822;2023-12-29T07:05:29;10.20;99.90
24448;DHT22;13348;50.984;5.822;2023-12-29T07:07:57;10.10;99.90
24448;DHT22;13348;50.984;5.822;2023-12-29T07:10:24;9.90;99.90
24448;DHT22;13348;50.984;5.822;2023-12-29T07:12:51;9.70;99.90
24448;DHT22;13348;50.984;5.822;2023-12-29T07:15:18;9.50;99.90
24448;DHT22;13348;50.984;5.822;2023-12-29T07:17:47;9.40;99.90
24448;DHT22;13348;50.984;5.822;2023-12-29T07:20:14;9.30;99.90
24448;DHT22;13348;50.984;5.822;2023-12-29T07:22:41;9.20;99.90
24448;DHT22;13348;50.984;5.822;2023-12-29T07:25:09;9.20;99.90
24448;DHT22;13348;50.984;5.822;2023-12-29T07:27:37;9.10;99.90
24448;DHT22;13348;50.984;5.822;2023-12-29T07:30:04;9.00;99.90
24448;DHT22;13348;50.984;5.822;2023-12-29T07:32:31;9.00;99.90
24448;DHT22;13348;50.984;5.822;2023-12-29T07:35:00;9.10;99.90
24448;DHT22;13348;50.984;5.822;2023-12-29T07:37:27;9.00;99.90
24448;DHT22;13348;50.984;5.822;2023-12-29T07:39:54;9.00;99.90
24448;DHT22;13348;50.984;5.822;2023-12-29T07:42:21;8.90;99.90
24448;DHT22;13348;50.984;5.822;2023-12-29T07:44:48;8.80;99.90
24448;DHT22;13348;50.984;5.822;2023-12-29T07:47:16;8.80;99.90
24448;DHT22;13348;50.984;5.822;2023-12-29T07:49:44;8.90;99.90
24448;DHT22;13348;50.984;5.822;2023-12-29T07:52:12;8.80;99.90
24448;DHT22;13348;50.984;5.822;2023-12-29T07:54:39;8.80;99.90
24448;DHT22;13348;50.984;5.822;2023-12-29T07:57:07;8.80;99.90
24448;DHT22;13348;50.984;5.822;2023-12-29T07:59:33;8.80;99.90
24448;DHT22;13348;50.984;5.822;2023-12-29T08:02:00;8.80;99.90
24448;DHT22;13348;50.984;5.822;2023-12-29T08:04:27;8.80;99.90
24448;DHT22;13348;50.984;5.822;2023-12-29T08:06:54;8.80;99.90
24448;DHT22;13348;50.984;5.822;2023-12-29T08:09:22;8.80;99.90
24448;DHT22;13348;50.984;5.822;2023-12-29T08:11:50;8.80;99.90
24448;DHT22;13348;50.984;5.822;2023-12-29T08:14:17;8.80;99.90
24448;DHT22;13348;50.984;5.822;2023-12-29T08:16:44;8.80;99.90
24448;DHT22;13348;50.984;5.822;2023-12-29T08:19:12;8.80;99.90
24448;DHT22;13348;50.984;5.822;2023-12-29T08:21:40;8.80;99.90
24448;DHT22;13348;50.984;5.822;2023-12-29T08:24:07;8.80;99.90
24448;DHT22;13348;50.984;5.822;2023-12-29T08:26:35;8.90;99.90
24448;DHT22;13348;50.984;5.822;2023-12-29T08:29:08;8.90;99.90
24448;DHT22;13348;50.984;5.822;2023-12-29T08:31:35;9.10;99.90
24448;DHT22;13348;50.984;5.822;2023-12-29T08:34:02;9.10;99.90
24448;DHT22;13348;50.984;5.822;2023-12-29T08:36:29;9.00;99.90
24448;DHT22;13348;50.984;5.822;2023-12-29T08:38:56;9.10;99.90
24448;DHT22;13348;50.984;5.822;2023-12-29T08:41:23;9.10;99.90
24448;DHT22;13348;50.984;5.822;2023-12-29T08:43:51;9.10;99.90
24448;DHT22;13348;50.984;5.822;2023-12-29T08:46:18;9.20;99.90
24448;DHT22;13348;50.984;5.822;2023-12-29T08:48:46;9.20;99.90
24448;DHT22;13348;50.984;5.822;2023-12-29T08:51:12;9.20;99.90
24448;DHT22;13348;50.984;5.822;2023-12-29T08:53:39;9.30;99.90
24448;DHT22;13348;50.984;5.822;2023-12-29T08:56:06;9.30;99.90
24448;DHT22;13348;50.984;5.822;2023-12-29T08:58:33;9.30;99.90
24448;DHT22;13348;50.984;5.822;2023-12-29T09:01:01;9.30;99.90
24448;DHT22;13348;50.984;5.822;2023-12-29T09:03:28;9.40;99.90
24448;DHT22;13348;50.984;5.822;2023-12-29T09:05:55;9.30;99.90
24448;DHT22;13348;50.984;5.822;2023-12-29T09:08:24;9.30;99.90
24448;DHT22;13348;50.984;5.822;2023-12-29T09:10:52;9.30;99.90
24448;DHT22;13348;50.984;5.822;2023-12-29T09:13:19;9.30;99.90
24448;DHT22;13348;50.984;5.822;2023-12-29T09:15:48;9.40;99.90
24448;DHT22;13348;50.984;5.822;2023-12-29T09:18:16;9.40;99.90
24448;DHT22;13348;50.984;5.822;2023-12-29T09:20:43;9.40;99.90
24448;DHT22;13348;50.984;5.822;2023-12-29T09:23:10;9.40;99.90
24448;DHT22;13348;50.984;5.822;2023-12-29T09:25:37;9.50;99.90
24448;DHT22;13348;50.984;5.822;2023-12-29T09:28:04;9.50;99.90
24448;DHT22;13348;50.984;5.822;2023-12-29T09:30:31;9.60;99.90
24448;DHT22;13348;50.984;5.822;2023-12-29T09:32:58;9.60;99.90
24448;DHT22;13348;50.984;5.822;2023-12-29T09:35:26;9.60;99.90
24448;DHT22;13348;50.984;5.822;2023-12-29T09:37:53;9.60;99.90
24448;DHT22;13348;50.984;5.822;2023-12-29T09:40:20;9.60;99.90
24448;DHT22;13348;50.984;5.822;2023-12-29T09:42:47;9.60;99.90
24448;DHT22;13348;50.984;5.822;2023-12-29T09:45:15;9.70;99.90
24448;DHT22;13348;50.984;5.822;2023-12-29T09:47:46;9.70;99.90
24448;DHT22;13348;50.984;5.822;2023-12-29T09:50:13;9.90;99.90
24448;DHT22;13348;50.984;5.822;2023-12-29T09:52:42;9.80;99.90
24448;DHT22;13348;50.984;5.822;2023-12-29T09:55:10;9.80;99.90
24448;DHT22;13348;50.984;5.822;2023-12-29T09:57:37;9.90;99.90
24448;DHT22;13348;50.984;5.822;2023-12-29T10:00:05;9.80;99.90
24448;DHT22;13348;50.984;5.822;2023-12-29T10:02:32;9.70;99.90
24448;DHT22;13348;50.984;5.822;2023-12-29T10:05:00;9.70;99.90
24448;DHT22;13348;50.984;5.822;2023-12-29T10:07:28;9.80;99.90
24448;DHT22;13348;50.984;5.822;2023-12-29T10:09:59;9.70;99.90
24448;DHT22;13348;50.984;5.822;2023-12-29T10:12:28;9.70;99.90
24448;DHT22;13348;50.984;5.822;2023-12-29T10:14:57;9.70;99.90
24448;DHT22;13348;50.984;5.822;2023-12-29T10:17:30;9.70;99.90
24448;DHT22;13348;50.984;5.822;2023-12-29T10:20:04;9.70;99.90
24448;DHT22;13348;50.984;5.822;2023-12-29T10:22:37;9.70;99.90
24448;DHT22;13348;50.984;5.822;2023-12-29T10:25:09;9.80;99.90
24448;DHT22;13348;50.984;5.822;2023-12-29T10:27:36;9.70;99.90
24448;DHT22;13348;50.984;5.822;2023-12-29T10:30:04;9.70;99.90
24448;DHT22;13348;50.984;5.822;2023-12-29T10:32:33;9.70;99.90
24448;DHT22;13348;50.984;5.822;2023-12-29T10:35:09;9.70;99.90
24448;DHT22;13348;50.984;5.822;2023-12-29T10:37:37;9.70;99.90
24448;DHT22;13348;50.984;5.822;2023-12-29T10:40:05;9.80;99.90
24448;DHT22;13348;50.984;5.822;2023-12-29T10:42:34;9.90;99.90
24448;DHT22;13348;50.984;5.822;2023-12-29T10:45:04;10.00;99.90
24448;DHT22;13348;50.984;5.822;2023-12-29T10:47:31;10.20;99.90
24448;DHT22;13348;50.984;5.822;2023-12-29T10:49:58;10.30;99.90
24448;DHT22;13348;50.984;5.822;2023-12-29T10:52:25;10.30;99.90
24448;DHT22;13348;50.984;5.822;2023-12-29T10:54:55;10.40;99.90
24448;DHT22;13348;50.984;5.822;2023-12-29T10:57:30;10.40;99.90
24448;DHT22;13348;50.984;5.822;2023-12-29T10:59:59;10.40;99.90
24448;DHT22;13348;50.984;5.822;2023-12-29T11:02:26;10.30;99.90
24448;DHT22;13348;50.984;5.822;2023-12-29T11:05:00;10.30;99.90
24448;DHT22;13348;50.984;5.822;2023-12-29T11:07:31;10.30;99.90
24448;DHT22;13348;50.984;5.822;2023-12-29T11:09:59;10.30;99.90
24448;DHT22;13348;50.984;5.822;2023-12-29T11:12:26;10.30;99.90
24448;DHT22;13348;50.984;5.822;2023-12-29T11:14:53;10.20;99.90
24448;DHT22;13348;50.984;5.822;2023-12-29T11:17:22;10.20;99.90
24448;DHT22;13348;50.984;5.822;2023-12-29T11:19:49;10.10;99.90
24448;DHT22;13348;50.984;5.822;2023-12-29T11:22:17;10.00;99.90
24448;DHT22;13348;50.984;5.822;2023-12-29T11:24:46;10.00;99.90
24448;DHT22;13348;50.984;5.822;2023-12-29T11:27:13;10.00;99.90
24448;DHT22;13348;50.984;5.822;2023-12-29T11:29:40;10.00;99.90
24448;DHT22;13348;50.984;5.822;2023-12-29T11:32:22;10.10;99.90
24448;DHT22;13348;50.984;5.822;2023-12-29T11:34:54;10.20;99.90
24448;DHT22;13348;50.984;5.822;2023-12-29T11:37:26;10.20;99.90
24448;DHT22;13348;50.984;5.822;2023-12-29T11:39:56;10.10;99.90
24448;DHT22;13348;50.984;5.822;2023-12-29T11:42:26;10.00;99.90
24448;DHT22;13348;50.984;5.822;2023-12-29T11:44:56;10.00;99.90
24448;DHT22;13348;50.984;5.822;2023-12-29T11:50:10;10.00;99.90
24448;DHT22;13348;50.984;5.822;2023-12-29T11:52:37;9.90;99.90
24448;DHT22;13348;50.984;5.822;2023-12-29T11:55:09;9.80;99.90
24448;DHT22;13348;50.984;5.822;2023-12-29T11:57:36;9.80;99.90
24448;DHT22;13348;50.984;5.822;2023-12-29T12:00:04;9.70;99.90
24448;DHT22;13348;50.984;5.822;2023-12-29T12:02:31;9.70;99.90
24448;DHT22;13348;50.984;5.822;2023-12-29T12:04:59;9.70;99.90
24448;DHT22;13348;50.984;5.822;2023-12-29T12:10:31;9.80;99.90
24448;DHT22;13348;50.984;5.822;2023-12-29T12:12:59;9.80;99.90
24448;DHT22;13348;50.984;5.822;2023-12-29T12:15:32;9.90;99.90
24448;DHT22;13348;50.984;5.822;2023-12-29T12:17:59;9.90;99.90
24448;DHT22;13348;50.984;5.822;2023-12-29T12:20:26;10.00;99.90
24448;DHT22;13348;50.984;5.822;2023-12-29T12:22:56;10.00;99.90
24448;DHT22;13348;50.984;5.822;2023-12-29T12:25:22;10.10;99.90
24448;DHT22;13348;50.984;5.822;2023-12-29T12:27:52;10.10;99.90
24448;DHT22;13348;50.984;5.822;2023-12-29T12:30:19;10.10;99.90
24448;DHT22;13348;50.984;5.822;2023-12-29T12:32:47;10.20;99.90
24448;DHT22;13348;50.984;5.822;2023-12-29T12:35:23;10.20;99.90
24448;DHT22;13348;50.984;5.822;2023-12-29T12:38:03;10.10;99.90
24448;DHT22;13348;50.984;5.822;2023-12-29T12:40:33;10.10;99.90
24448;DHT22;13348;50.984;5.822;2023-12-29T12:43:01;10.00;99.90
24448;DHT22;13348;50.984;5.822;2023-12-29T12:45:29;10.00;99.90
24448;DHT22;13348;50.984;5.822;2023-12-29T12:47:59;10.00;99.90
24448;DHT22;13348;50.984;5.822;2023-12-29T12:50:26;10.10;99.90
24448;DHT22;13348;50.984;5.822;2023-12-29T12:52:53;10.30;99.90
24448;DHT22;13348;50.984;5.822;2023-12-29T12:55:23;10.30;99.90
24448;DHT22;13348;50.984;5.822;2023-12-29T12:57:50;10.30;99.90
24448;DHT22;13348;50.984;5.822;2023-12-29T13:00:19;10.30;99.90
24448;DHT22;13348;50.984;5.822;2023-12-29T13:02:45;10.30;99.90
24448;DHT22;13348;50.984;5.822;2023-12-29T13:05:14;10.30;99.90
24448;DHT22;13348;50.984;5.822;2023-12-29T13:07:42;10.40;99.90
24448;DHT22;13348;50.984;5.822;2023-12-29T13:10:09;10.30;99.90
24448;DHT22;13348;50.984;5.822;2023-12-29T13:12:36;10.30;99.90
24448;DHT22;13348;50.984;5.822;2023-12-29T13:15:06;10.30;99.90
24448;DHT22;13348;50.984;5.822;2023-12-29T13:17:35;10.30;99.90
24448;DHT22;13348;50.984;5.822;2023-12-29T13:20:02;10.20;99.90
24448;DHT22;13348;50.984;5.822;2023-12-29T13:22:30;10.10;99.90
24448;DHT22;13348;50.984;5.822;2023-12-29T13:24:57;10.10;99.90
24448;DHT22;13348;50.984;5.822;2023-12-29T13:27:24;10.00;99.90
24448;DHT22;13348;50.984;5.822;2023-12-29T13:29:51;9.90;99.90
24448;DHT22;13348;50.984;5.822;2023-12-29T13:32:19;9.70;99.90
24448;DHT22;13348;50.984;5.822;2023-12-29T13:34:53;9.70;99.90
24448;DHT22;13348;50.984;5.822;2023-12-29T13:37:24;9.60;99.90
24448;DHT22;13348;50.984;5.822;2023-12-29T13:39:53;9.60;99.90
24448;DHT22;13348;50.984;5.822;2023-12-29T13:42:21;9.60;99.90
24448;DHT22;13348;50.984;5.822;2023-12-29T13:44:49;9.60;99.90
24448;DHT22;13348;50.984;5.822;2023-12-29T13:47:16;9.60;99.90
24448;DHT22;13348;50.984;5.822;2023-12-29T13:49:43;9.60;99.90
24448;DHT22;13348;50.984;5.822;2023-12-29T13:52:12;9.60;99.90
24448;DHT22;13348;50.984;5.822;2023-12-29T13:54:40;9.70;99.90
24448;DHT22;13348;50.984;5.822;2023-12-29T13:57:07;9.70;99.90
24448;DHT22;13348;50.984;5.822;2023-12-29T13:59:34;9.70;99.90
24448;DHT22;13348;50.984;5.822;2023-12-29T14:02:03;9.70;99.90
24448;DHT22;13348;50.984;5.822;2023-12-29T14:04:30;9.80;99.90
24448;DHT22;13348;50.984;5.822;2023-12-29T14:06:59;9.70;99.90
24448;DHT22;13348;50.984;5.822;2023-12-29T14:09:28;9.70;99.90
24448;DHT22;13348;50.984;5.822;2023-12-29T14:11:55;9.80;99.90
24448;DHT22;13348;50.984;5.822;2023-12-29T14:14:22;9.80;99.90
24448;DHT22;13348;50.984;5.822;2023-12-29T14:16:50;9.80;99.90
24448;DHT22;13348;50.984;5.822;2023-12-29T14:19:17;9.90;99.90
24448;DHT22;13348;50.984;5.822;2023-12-29T14:21:44;9.90;99.90
24448;DHT22;13348;50.984;5.822;2023-12-29T14:24:12;9.90;99.90
24448;DHT22;13348;50.984;5.822;2023-12-29T14:26:42;10.00;99.90
24448;DHT22;13348;50.984;5.822;2023-12-29T14:29:11;10.00;99.90
24448;DHT22;13348;50.984;5.822;2023-12-29T14:31:39;10.00;99.90
24448;DHT22;13348;50.984;5.822;2023-12-29T14:34:06;10.00;99.90
24448;DHT22;13348;50.984;5.822;2023-12-29T14:36:33;10.00;99.90
24448;DHT22;13348;50.984;5.822;2023-12-29T14:39:01;10.00;99.90
24448;DHT22;13348;50.984;5.822;2023-12-29T14:41:28;10.00;99.90
24448;DHT22;13348;50.984;5.822;2023-12-29T14:43:57;10.00;99.90
24448;DHT22;13348;50.984;5.822;2023-12-29T14:46:24;9.90;99.90
24448;DHT22;13348;50.984;5.822;2023-12-29T14:48:52;9.90;99.90
24448;DHT22;13348;50.984;5.822;2023-12-29T14:51:19;9.80;99.90
24448;DHT22;13348;50.984;5.822;2023-12-29T14:53:47;9.90;99.90
24448;DHT22;13348;50.984;5.822;2023-12-29T14:56:14;9.80;99.90
24448;DHT22;13348;50.984;5.822;2023-12-29T14:58:41;9.70;99.90
24448;DHT22;13348;50.984;5.822;2023-12-29T15:01:10;9.70;99.90
24448;DHT22;13348;50.984;5.822;2023-12-29T15:03:37;9.60;99.90
24448;DHT22;13348;50.984;5.822;2023-12-29T15:06:04;9.60;99.90
24448;DHT22;13348;50.984;5.822;2023-12-29T15:08:32;9.60;99.90
24448;DHT22;13348;50.984;5.822;2023-12-29T15:11:01;9.60;99.90
24448;DHT22;13348;50.984;5.822;2023-12-29T15:13:28;9.60;99.90
24448;DHT22;13348;50.984;5.822;2023-12-29T15:15:56;9.60;99.90
24448;DHT22;13348;50.984;5.822;2023-12-29T15:18:26;9.70;99.90
24448;DHT22;13348;50.984;5.822;2023-12-29T15:20:53;9.70;99.90
24448;DHT22;13348;50.984;5.822;2023-12-29T15:23:20;9.70;99.90
24448;DHT22;13348;50.984;5.822;2023-12-29T15:25:48;9.80;99.90
24448;DHT22;13348;50.984;5.822;2023-12-29T15:28:15;9.70;99.90
24448;DHT22;13348;50.984;5.822;2023-12-29T15:30:44;9.70;99.90
24448;DHT22;13348;50.984;5.822;2023-12-29T15:33:11;9.70;99.90
24448;DHT22;13348;50.984;5.822;2023-12-29T15:35:40;9.60;99.90
24448;DHT22;13348;50.984;5.822;2023-12-29T15:38:07;9.60;99.90
24448;DHT22;13348;50.984;5.822;2023-12-29T15:40:34;9.60;99.90
24448;DHT22;13348;50.984;5.822;2023-12-29T15:43:01;9.60;99.90
24448;DHT22;13348;50.984;5.822;2023-12-29T15:45:29;9.70;99.90